sensor_id;sensor_type;location;lat;lon;timestamp;temperature;humidity
20337;DHT22;10326;53.660;10.200;2023-11-19T00:01:59;9.10;92.40
20337;DHT22;10326;53.660;10.200;2023-11-19T00:04:26;9.10;92.40
20337;DHT22;10326;53.660;10.200;2023-11-19T00:06:55;9.10;92.40
20337;DHT22;10326;53.660;10.200;2023-11-19T00:09:28;9.10;92.50
20337;DHT22;10326;53.660;10.200;2023-11-19T00:11:55;9.10;92.50
20337;DHT22;10326;53.660;10.200;2023-11-19T00:14:23;9.10;92.50
20337;DHT22;10326;53.660;10.200;2023-11-19T00:16:51;9.10;92.50
20337;DHT22;10326;53.660;10.200;2023-11-19T00:19:19;9.10;92.50
20337;DHT22;10326;53.660;10.200;2023-11-19T00:21:46;9.10;92.50
20337;DHT22;10326;53.660;10.200;2023-11-19T00:24:15;9.10;92.50
20337;DHT22;10326;53.660;10.200;2023-11-19T00:26:43;9.10;92.50
20337;DHT22;10326;53.660;10.200;2023-11-19T00:29:10;9.10;92.50
20337;DHT22;10326;53.660;10.200;2023-11-19T00:31:39;9.10;92.50
20337;DHT22;10326;53.660;10.200;2023-11-19T00:34:06;9.20;92.60
20337;DHT22;10326;53.660;10.200;2023-11-19T00:36:33;9.20;92.60
20337;DHT22;10326;53.660;10.200;2023-11-19T00:39:01;9.20;92.60
20337;DHT22;10326;53.660;10.200;2023-11-19T00:41:30;9.20;92.60
20337;DHT22;10326;53.660;10.200;2023-11-19T00:43:57;9.20;92.60
20337;DHT22;10326;53.660;10.200;2023-11-19T00:46:25;9.20;92.60
20337;DHT22;10326;53.660;10.200;2023-11-19T00:48:53;9.20;92.60
20337;DHT22;10326;53.660;10.200;2023-11-19T00:51:20;9.20;92.60
20337;DHT22;10326;53.660;10.200;2023-11-19T00:53:47;9.20;92.60
20337;DHT22;10326;53.660;10.200;2023-11-19T00:56:14;9.20;92.60
20337;DHT22;10326;53.660;10.200;2023-11-19T00:58:44;9.20;92.60
20337;DHT22;10326;53.660;10.200;2023-11-19T01:01:12;9.30;92.70
20337;DHT22;10326;53.660;10.200;2023-11-19T01:03:39;9.30;92.60
20337;DHT22;10326;53.660;10.200;2023-11-19T01:06:07;9.30;92.70
20337;DHT22;10326;53.660;10.200;2023-11-19T01:08:34;9.30;92.70
20337;DHT22;10326;53.660;10.200;2023-11-19T01:11:02;9.30;92.70
20337;DHT22;10326;53.660;10.200;2023-11-19T01:13:30;9.30;92.70
20337;DHT22;10326;53.660;10.200;2023-11-19T01:15:58;9.30;92.70
20337;DHT22;10326;53.660;10.200;2023-11-19T01:18:27;9.30;92.80
20337;DHT22;10326;53.660;10.200;2023-11-19T01:20:54;9.30;92.80
20337;DHT22;10326;53.660;10.200;2023-11-19T01:23:22;9.30;92.80
20337;DHT22;10326;53.660;10.200;2023-11-19T01:25:49;9.30;92.80
20337;DHT22;10326;53.660;10.200;2023-11-19T01:28:16;9.30;92.80
20337;DHT22;10326;53.660;10.200;2023-11-19T01:30:43;9.30;92.80
20337;DHT22;10326;53.660;10.200;2023-11-19T01:33:11;9.30;92.80
20337;DHT22;10326;53.660;10.200;2023-11-19T01:35:38;9.30;92.80
20337;DHT22;10326;53.660;10.200;2023-11-19T01:38:06;9.40;92.80
20337;DHT22;10326;53.660;10.200;2023-11-19T01:40:35;9.40;92.80
20337;DHT22;10326;53.660;10.200;2023-11-19T01:43:03;9.40;92.90
20337;DHT22;10326;53.660;10.200;2023-11-19T01:45:31;9.40;92.80
20337;DHT22;10326;53.660;10.200;2023-11-19T01:48:00;9.40;92.80
20337;DHT22;10326;53.660;10.200;2023-11-19T01:50:32;9.40;92.90
20337;DHT22;10326;53.660;10.200;2023-11-19T01:53:00;9.40;92.90
20337;DHT22;10326;53.660;10.200;2023-11-19T01:55:28;9.40;92.90
20337;DHT22;10326;53.660;10.200;2023-11-19T01:57:59;9.40;92.90
20337;DHT22;10326;53.660;10.200;2023-11-19T02:00:27;9.40;92.90
20337;DHT22;10326;53.660;10.200;2023-11-19T02:02:54;9.40;92.90
20337;DHT22;10326;53.660;10.200;2023-11-19T02:05:21;9.40;92.90
20337;DHT22;10326;53.660;10.200;2023-11-19T02:07:50;9.40;92.90
20337;DHT22;10326;53.660;10.200;2023-11-19T02:10:18;9.40;92.90
20337;DHT22;10326;53.660;10.200;2023-11-19T02:12:45;9.40;92.90
20337;DHT22;10326;53.660;10.200;2023-11-19T02:15:13;9.50;92.90
20337;DHT22;10326;53.660;10.200;2023-11-19T02:17:40;9.40;92.90
20337;DHT22;10326;53.660;10.200;2023-11-19T02:20:09;9.50;92.90
20337;DHT22;10326;53.660;10.200;2023-11-19T02:22:39;9.50;92.90
20337;DHT22;10326;53.660;10.200;2023-11-19T02:25:11;9.50;92.90
20337;DHT22;10326;53.660;10.200;2023-11-19T02:27:57;9.50;93.00
20337;DHT22;10326;53.660;10.200;2023-11-19T02:30:25;9.50;93.00
20337;DHT22;10326;53.660;10.200;2023-11-19T02:32:54;9.50;92.90
20337;DHT22;10326;53.660;10.200;2023-11-19T02:35:22;9.50;92.90
20337;DHT22;10326;53.660;10.200;2023-11-19T02:37:49;9.50;93.00
20337;DHT22;10326;53.660;10.200;2023-11-19T02:40:17;9.50;92.90
20337;DHT22;10326;53.660;10.200;2023-11-19T02:42:44;9.50;92.90
20337;DHT22;10326;53.660;10.200;2023-11-19T02:45:14;9.50;93.00
20337;DHT22;10326;53.660;10.200;2023-11-19T02:47:42;9.50;93.00
20337;DHT22;10326;53.660;10.200;2023-11-19T02:50:10;9.50;93.00
20337;DHT22;10326;53.660;10.200;2023-11-19T02:52:40;9.50;93.20
20337;DHT22;10326;53.660;10.200;2023-11-19T02:55:08;9.50;93.00
20337;DHT22;10326;53.660;10.200;2023-11-19T02:57:38;9.50;93.00
20337;DHT22;10326;53.660;10.200;2023-11-19T03:00:14;9.50;93.00
20337;DHT22;10326;53.660;10.200;2023-11-19T03:02:41;9.50;93.00
20337;DHT22;10326;53.660;10.200;2023-11-19T03:05:12;9.60;93.00
20337;DHT22;10326;53.660;10.200;2023-11-19T03:07:41;9.60;93.00
20337;DHT22;10326;53.660;10.200;2023-11-19T03:10:09;9.50;93.00
20337;DHT22;10326;53.660;10.200;2023-11-19T03:12:39;9.60;93.00
20337;DHT22;10326;53.660;10.200;2023-11-19T03:15:07;9.60;93.10
20337;DHT22;10326;53.660;10.200;2023-11-19T03:17:38;9.60;93.10
20337;DHT22;10326;53.660;10.200;2023-11-19T03:20:07;9.60;93.10
20337;DHT22;10326;53.660;10.200;2023-11-19T03:22:36;9.60;93.10
20337;DHT22;10326;53.660;10.200;2023-11-19T03:25:04;9.60;93.10
20337;DHT22;10326;53.660;10.200;2023-11-19T03:27:34;9.60;93.10
20337;DHT22;10326;53.660;10.200;2023-11-19T03:30:01;9.60;93.10
20337;DHT22;10326;53.660;10.200;2023-11-19T03:32:30;9.70;93.20
20337;DHT22;10326;53.660;10.200;2023-11-19T03:34:59;9.70;93.20
20337;DHT22;10326;53.660;10.200;2023-11-19T03:37:27;9.70;93.20
20337;DHT22;10326;53.660;10.200;2023-11-19T03:39:55;9.70;93.20
20337;DHT22;10326;53.660;10.200;2023-11-19T03:42:25;9.70;93.20
20337;DHT22;10326;53.660;10.200;2023-11-19T03:44:53;9.70;93.50
20337;DHT22;10326;53.660;10.200;2023-11-19T03:47:21;9.70;93.30
20337;DHT22;10326;53.660;10.200;2023-11-19T03:49:48;9.80;93.30
20337;DHT22;10326;53.660;10.200;2023-11-19T03:52:18;9.70;93.50
20337;DHT22;10326;53.660;10.200;2023-11-19T03:54:45;9.80;93.30
20337;DHT22;10326;53.660;10.200;2023-11-19T03:57:12;9.80;93.30
20337;DHT22;10326;53.660;10.200;2023-11-19T03:59:41;9.80;93.30
20337;DHT22;10326;53.660;10.200;2023-11-19T04:02:08;9.80;93.30
20337;DHT22;10326;53.660;10.200;2023-11-19T04:04:35;9.80;93.30
20337;DHT22;10326;53.660;10.200;2023-11-19T04:07:03;9.80;93.30
20337;DHT22;10326;53.660;10.200;2023-11-19T04:09:32;9.90;93.40
20337;DHT22;10326;53.660;10.200;2023-11-19T04:11:59;9.90;93.40
20337;DHT22;10326;53.660;10.200;2023-11-19T04:14:27;9.90;93.40
20337;DHT22;10326;53.660;10.200;2023-11-19T04:16:54;9.90;93.40
20337;DHT22;10326;53.660;10.200;2023-11-19T04:19:21;9.90;93.40
20337;DHT22;10326;53.660;10.200;2023-11-19T04:21:48;9.90;93.40
20337;DHT22;10326;53.660;10.200;2023-11-19T04:24:17;10.00;93.50
20337;DHT22;10326;53.660;10.200;2023-11-19T04:26:46;10.00;93.50
20337;DHT22;10326;53.660;10.200;2023-11-19T04:29:14;10.00;93.50
20337;DHT22;10326;53.660;10.200;2023-11-19T04:31:42;10.00;93.50
20337;DHT22;10326;53.660;10.200;2023-11-19T04:34:11;10.00;93.50
20337;DHT22;10326;53.660;10.200;2023-11-19T04:36:38;10.00;93.50
20337;DHT22;10326;53.660;10.200;2023-11-19T04:39:05;10.00;93.50
20337;DHT22;10326;53.660;10.200;2023-11-19T04:41:47;10.10;93.50
20337;DHT22;10326;53.660;10.200;2023-11-19T04:44:14;10.10;93.60
20337;DHT22;10326;53.660;10.200;2023-11-19T04:46:42;10.10;93.50
20337;DHT22;10326;53.660;10.200;2023-11-19T04:49:09;10.10;93.50
20337;DHT22;10326;53.660;10.200;2023-11-19T04:51:40;10.10;93.50
20337;DHT22;10326;53.660;10.200;2023-11-19T04:57:54;10.20;93.80
20337;DHT22;10326;53.660;10.200;2023-11-19T05:00:21;10.20;93.60
20337;DHT22;10326;53.660;10.200;2023-11-19T05:02:48;10.10;93.50
20337;DHT22;10326;53.660;10.200;2023-11-19T05:05:15;10.10;93.60
20337;DHT22;10326;53.660;10.200;2023-11-19T05:07:43;10.20;93.70
20337;DHT22;10326;53.660;10.200;2023-11-19T05:10:10;10.20;93.70
20337;DHT22;10326;53.660;10.200;2023-11-19T05:12:37;10.20;93.80
20337;DHT22;10326;53.660;10.200;2023-11-19T05:15:06;10.20;93.80
20337;DHT22;10326;53.660;10.200;2023-11-19T05:17:34;10.20;93.80
20337;DHT22;10326;53.660;10.200;2023-11-19T05:20:03;10.20;93.80
20337;DHT22;10326;53.660;10.200;2023-11-19T05:22:30;10.30;93.90
20337;DHT22;10326;53.660;10.200;2023-11-19T05:24:58;10.30;93.90
20337;DHT22;10326;53.660;10.200;2023-11-19T05:27:25;10.30;94.00
20337;DHT22;10326;53.660;10.200;2023-11-19T05:29:52;10.30;93.90
20337;DHT22;10326;53.660;10.200;2023-11-19T05:32:20;10.30;94.00
20337;DHT22;10326;53.660;10.200;2023-11-19T05:34:47;10.30;94.10
20337;DHT22;10326;53.660;10.200;2023-11-19T05:37:15;10.40;94.10
20337;DHT22;10326;53.660;10.200;2023-11-19T05:39:42;10.40;94.10
20337;DHT22;10326;53.660;10.200;2023-11-19T05:42:09;10.40;94.20
20337;DHT22;10326;53.660;10.200;2023-11-19T05:44:36;10.50;94.20
20337;DHT22;10326;53.660;10.200;2023-11-19T05:47:03;10.50;94.20
20337;DHT22;10326;53.660;10.200;2023-11-19T05:49:32;10.50;94.20
20337;DHT22;10326;53.660;10.200;2023-11-19T05:51:59;10.50;94.30
20337;DHT22;10326;53.660;10.200;2023-11-19T05:54:28;10.60;94.30
20337;DHT22;10326;53.660;10.200;2023-11-19T05:56:57;10.60;94.40
20337;DHT22;10326;53.660;10.200;2023-11-19T05:59:24;10.60;94.40
20337;DHT22;10326;53.660;10.200;2023-11-19T06:01:51;10.60;94.50
20337;DHT22;10326;53.660;10.200;2023-11-19T06:04:18;10.70;94.50
20337;DHT22;10326;53.660;10.200;2023-11-19T06:06:47;10.70;94.60
20337;DHT22;10326;53.660;10.200;2023-11-19T06:09:14;10.70;94.60
20337;DHT22;10326;53.660;10.200;2023-11-19T06:11:44;10.70;94.60
20337;DHT22;10326;53.660;10.200;2023-11-19T06:14:12;10.80;94.70
20337;DHT22;10326;53.660;10.200;2023-11-19T06:16:38;10.90;94.70
20337;DHT22;10326;53.660;10.200;2023-11-19T06:19:05;10.90;94.80
20337;DHT22;10326;53.660;10.200;2023-11-19T06:21:33;10.90;94.80
20337;DHT22;10326;53.660;10.200;2023-11-19T06:24:04;11.00;94.90
20337;DHT22;10326;53.660;10.200;2023-11-19T06:26:31;11.00;94.90
20337;DHT22;10326;53.660;10.200;2023-11-19T06:28:58;11.00;94.90
20337;DHT22;10326;53.660;10.200;2023-11-19T06:31:25;11.00;95.00
20337;DHT22;10326;53.660;10.200;2023-11-19T06:33:53;11.10;95.00
20337;DHT22;10326;53.660;10.200;2023-11-19T06:36:20;11.20;95.10
20337;DHT22;10326;53.660;10.200;2023-11-19T06:38:47;11.20;95.10
20337;DHT22;10326;53.660;10.200;2023-11-19T06:41:15;11.20;95.20
20337;DHT22;10326;53.660;10.200;2023-11-19T06:43:43;11.30;95.20
20337;DHT22;10326;53.660;10.200;2023-11-19T06:46:16;11.30;95.20
20337;DHT22;10326;53.660;10.200;2023-11-19T06:48:44;11.40;95.30
20337;DHT22;10326;53.660;10.200;2023-11-19T06:51:11;11.40;95.20
20337;DHT22;10326;53.660;10.200;2023-11-19T06:53:38;11.40;95.20
20337;DHT22;10326;53.660;10.200;2023-11-19T06:56:10;11.50;95.20
20337;DHT22;10326;53.660;10.200;2023-11-19T06:58:45;11.50;95.20
20337;DHT22;10326;53.660;10.200;2023-11-19T07:01:13;11.50;95.20
20337;DHT22;10326;53.660;10.200;2023-11-19T07:03:40;11.60;95.30
20337;DHT22;10326;53.660;10.200;2023-11-19T07:06:07;11.60;95.40
20337;DHT22;10326;53.660;10.200;2023-11-19T07:08:35;11.60;95.50
20337;DHT22;10326;53.660;10.200;2023-11-19T07:11:02;11.70;95.50
20337;DHT22;10326;53.660;10.200;2023-11-19T07:13:30;11.70;95.60
20337;DHT22;10326;53.660;10.200;2023-11-19T07:15:57;11.80;95.70
20337;DHT22;10326;53.660;10.200;2023-11-19T07:18:25;11.80;95.70
20337;DHT22;10326;53.660;10.200;2023-11-19T07:20:52;11.90;95.80
20337;DHT22;10326;53.660;10.200;2023-11-19T07:23:19;11.90;96.00
20337;DHT22;10326;53.660;10.200;2023-11-19T07:25:47;12.10;96.10
20337;DHT22;10326;53.660;10.200;2023-11-19T07:28:16;12.20;96.20
20337;DHT22;10326;53.660;10.200;2023-11-19T07:30:45;12.20;96.20
20337;DHT22;10326;53.660;10.200;2023-11-19T07:33:13;12.30;96.20
20337;DHT22;10326;53.660;10.200;2023-11-19T07:35:40;12.40;96.30
20337;DHT22;10326;53.660;10.200;2023-11-19T07:38:08;12.50;96.40
20337;DHT22;10326;53.660;10.200;2023-11-19T07:40:35;12.60;96.50
20337;DHT22;10326;53.660;10.200;2023-11-19T07:43:02;12.70;96.50
20337;DHT22;10326;53.660;10.200;2023-11-19T07:45:29;12.80;96.50
20337;DHT22;10326;53.660;10.200;2023-11-19T07:47:57;12.80;96.70
20337;DHT22;10326;53.660;10.200;2023-11-19T07:50:26;12.90;96.50
20337;DHT22;10326;53.660;10.200;2023-11-19T07:52:54;13.00;96.50
20337;DHT22;10326;53.660;10.200;2023-11-19T07:55:21;13.10;96.50
20337;DHT22;10326;53.660;10.200;2023-11-19T07:57:48;13.10;96.50
20337;DHT22;10326;53.660;10.200;2023-11-19T08:00:15;13.20;96.50
20337;DHT22;10326;53.660;10.200;2023-11-19T08:02:43;13.20;96.50
20337;DHT22;10326;53.660;10.200;2023-11-19T08:05:12;13.30;96.40
20337;DHT22;10326;53.660;10.200;2023-11-19T08:07:40;13.30;96.50
20337;DHT22;10326;53.660;10.200;2023-11-19T08:10:08;13.30;96.50
20337;DHT22;10326;53.660;10.200;2023-11-19T08:12:36;13.40;96.50
20337;DHT22;10326;53.660;10.200;2023-11-19T08:15:04;13.50;96.50
20337;DHT22;10326;53.660;10.200;2023-11-19T08:17:32;13.50;96.50
20337;DHT22;10326;53.660;10.200;2023-11-19T08:19:59;13.50;96.50
20337;DHT22;10326;53.660;10.200;2023-11-19T08:22:28;13.60;96.50
20337;DHT22;10326;53.660;10.200;2023-11-19T08:24:55;13.60;96.50
20337;DHT22;10326;53.660;10.200;2023-11-19T08:27:22;13.70;96.50
20337;DHT22;10326;53.660;10.200;2023-11-19T08:29:53;13.70;96.40
20337;DHT22;10326;53.660;10.200;2023-11-19T08:32:21;13.70;96.70
20337;DHT22;10326;53.660;10.200;2023-11-19T08:34:48;13.70;96.40
20337;DHT22;10326;53.660;10.200;2023-11-19T08:37:15;13.80;96.40
20337;DHT22;10326;53.660;10.200;2023-11-19T08:39:45;13.80;96.40
20337;DHT22;10326;53.660;10.200;2023-11-19T08:42:12;13.80;96.40
20337;DHT22;10326;53.660;10.200;2023-11-19T08:44:39;13.90;96.40
20337;DHT22;10326;53.660;10.200;2023-11-19T08:47:09;13.80;96.40
20337;DHT22;10326;53.660;10.200;2023-11-19T08:49:36;13.90;96.40
20337;DHT22;10326;53.660;10.200;2023-11-19T08:52:04;13.90;96.40
20337;DHT22;10326;53.660;10.200;2023-11-19T08:54:32;13.90;96.40
20337;DHT22;10326;53.660;10.200;2023-11-19T08:57:01;13.90;96.30
20337;DHT22;10326;53.660;10.200;2023-11-19T08:59:29;14.00;96.40
20337;DHT22;10326;53.660;10.200;2023-11-19T09:01:56;14.00;96.40
20337;DHT22;10326;53.660;10.200;2023-11-19T09:04:23;14.00;96.40
20337;DHT22;10326;53.660;10.200;2023-11-19T09:06:50;14.00;96.30
20337;DHT22;10326;53.660;10.200;2023-11-19T09:09:18;14.00;96.30
20337;DHT22;10326;53.660;10.200;2023-11-19T09:11:45;14.00;96.30
20337;DHT22;10326;53.660;10.200;2023-11-19T09:14:14;14.00;96.30
20337;DHT22;10326;53.660;10.200;2023-11-19T09:16:42;14.00;96.30
20337;DHT22;10326;53.660;10.200;2023-11-19T09:19:09;14.10;96.30
20337;DHT22;10326;53.660;10.200;2023-11-19T09:21:36;14.10;96.30
20337;DHT22;10326;53.660;10.200;2023-11-19T09:24:05;14.10;96.50
20337;DHT22;10326;53.660;10.200;2023-11-19T09:26:34;14.10;96.20
20337;DHT22;10326;53.660;10.200;2023-11-19T09:29:01;14.10;96.20
20337;DHT22;10326;53.660;10.200;2023-11-19T09:31:30;14.10;96.50
20337;DHT22;10326;53.660;10.200;2023-11-19T09:33:57;14.20;96.30
20337;DHT22;10326;53.660;10.200;2023-11-19T09:36:25;14.20;96.30
20337;DHT22;10326;53.660;10.200;2023-11-19T09:38:52;14.20;96.30
20337;DHT22;10326;53.660;10.200;2023-11-19T09:41:19;14.20;96.30
20337;DHT22;10326;53.660;10.200;2023-11-19T09:43:47;14.30;96.20
20337;DHT22;10326;53.660;10.200;2023-11-19T09:46:15;14.30;96.20
20337;DHT22;10326;53.660;10.200;2023-11-19T09:48:44;14.30;96.20
20337;DHT22;10326;53.660;10.200;2023-11-19T09:51:14;14.30;96.20
20337;DHT22;10326;53.660;10.200;2023-11-19T09:53:42;14.30;96.10
20337;DHT22;10326;53.660;10.200;2023-11-19T09:56:12;14.30;96.10
20337;DHT22;10326;53.660;10.200;2023-11-19T09:58:40;14.30;96.10
20337;DHT22;10326;53.660;10.200;2023-11-19T10:01:07;14.30;96.00
20337;DHT22;10326;53.660;10.200;2023-11-19T10:03:38;14.30;96.00
20337;DHT22;10326;53.660;10.200;2023-11-19T10:06:08;14.30;96.00
20337;DHT22;10326;53.660;10.200;2023-11-19T10:08:37;14.40;96.10
20337;DHT22;10326;53.660;10.200;2023-11-19T10:11:05;14.40;96.10
20337;DHT22;10326;53.660;10.200;2023-11-19T10:13:36;14.40;96.10
20337;DHT22;10326;53.660;10.200;2023-11-19T10:16:07;14.40;96.10
20337;DHT22;10326;53.660;10.200;2023-11-19T10:18:37;14.40;96.00
20337;DHT22;10326;53.660;10.200;2023-11-19T10:21:04;14.40;96.00
20337;DHT22;10326;53.660;10.200;2023-11-19T10:23:51;14.50;95.90
20337;DHT22;10326;53.660;10.200;2023-11-19T10:26:20;14.50;95.90
20337;DHT22;10326;53.660;10.200;2023-11-19T10:28:48;14.50;95.80
20337;DHT22;10326;53.660;10.200;2023-11-19T10:31:16;14.50;95.70
20337;DHT22;10326;53.660;10.200;2023-11-19T10:33:44;14.50;95.70
20337;DHT22;10326;53.660;10.200;2023-11-19T10:36:11;14.50;95.80
20337;DHT22;10326;53.660;10.200;2023-11-19T10:38:39;14.60;95.80
20337;DHT22;10326;53.660;10.200;2023-11-19T10:41:08;14.60;95.80
20337;DHT22;10326;53.660;10.200;2023-11-19T10:43:45;14.60;95.70
20337;DHT22;10326;53.660;10.200;2023-11-19T10:46:13;14.60;95.60
20337;DHT22;10326;53.660;10.200;2023-11-19T10:48:46;14.60;95.60
20337;DHT22;10326;53.660;10.200;2023-11-19T10:51:13;14.60;95.70
20337;DHT22;10326;53.660;10.200;2023-11-19T10:53:49;14.70;95.70
20337;DHT22;10326;53.660;10.200;2023-11-19T10:56:20;14.70;95.60
20337;DHT22;10326;53.660;10.200;2023-11-19T10:58:51;14.70;95.60
20337;DHT22;10326;53.660;10.200;2023-11-19T11:01:21;14.70;95.60
20337;DHT22;10326;53.660;10.200;2023-11-19T11:03:51;14.70;95.60
20337;DHT22;10326;53.660;10.200;2023-11-19T11:06:21;14.70;95.60
20337;DHT22;10326;53.660;10.200;2023-11-19T11:08:49;14.70;95.50
20337;DHT22;10326;53.660;10.200;2023-11-19T11:11:18;14.70;95.50
20337;DHT22;10326;53.660;10.200;2023-11-19T11:13:47;14.70;95.40
20337;DHT22;10326;53.660;10.200;2023-11-19T11:16:21;14.70;95.40
20337;DHT22;10326;53.660;10.200;2023-11-19T11:18:50;14.70;95.40
20337;DHT22;10326;53.660;10.200;2023-11-19T11:21:22;14.70;95.40
20337;DHT22;10326;53.660;10.200;2023-11-19T11:24:21;14.70;95.40
20337;DHT22;10326;53.660;10.200;2023-11-19T11:27:25;14.70;95.30
20337;DHT22;10326;53.660;10.200;2023-11-19T11:30:17;14.70;95.30
20337;DHT22;10326;53.660;10.200;2023-11-19T11:32:59;14.70;95.30
20337;DHT22;10326;53.660;10.200;2023-11-19T11:35:44;14.70;95.40
20337;DHT22;10326;53.660;10.200;2023-11-19T11:38:22;14.60;95.30
20337;DHT22;10326;53.660;10.200;2023-11-19T11:41:14;14.60;95.40
20337;DHT22;10326;53.660;10.200;2023-11-19T11:43:46;14.60;95.50
20337;DHT22;10326;53.660;10.200;2023-11-19T11:49:26;14.60;95.50
20337;DHT22;10326;53.660;10.200;2023-11-19T11:52:03;14.60;95.60
20337;DHT22;10326;53.660;10.200;2023-11-19T11:54:31;14.60;95.60
20337;DHT22;10326;53.660;10.200;2023-11-19T11:57:07;14.70;95.60
20337;DHT22;10326;53.660;10.200;2023-11-19T11:59:49;14.70;95.50
20337;DHT22;10326;53.660;10.200;2023-11-19T12:02:20;14.70;95.50
20337;DHT22;10326;53.660;10.200;2023-11-19T12:04:49;14.70;95.40
20337;DHT22;10326;53.660;10.200;2023-11-19T12:07:20;14.70;95.40
20337;DHT22;10326;53.660;10.200;2023-11-19T12:09:51;14.70;95.40
20337;DHT22;10326;53.660;10.200;2023-11-19T12:12:28;14.70;95.40
20337;DHT22;10326;53.660;10.200;2023-11-19T12:15:13;14.70;95.40
20337;DHT22;10326;53.660;10.200;2023-11-19T12:17:43;14.60;95.50
20337;DHT22;10326;53.660;10.200;2023-11-19T12:20:15;14.60;95.40
20337;DHT22;10326;53.660;10.200;2023-11-19T12:22:46;14.60;95.50
20337;DHT22;10326;53.660;10.200;2023-11-19T12:25:24;14.60;95.50
20337;DHT22;10326;53.660;10.200;2023-11-19T12:27:52;14.50;95.50
20337;DHT22;10326;53.660;10.200;2023-11-19T12:30:24;14.50;95.60
20337;DHT22;10326;53.660;10.200;2023-11-19T12:32:53;14.50;95.70
20337;DHT22;10326;53.660;10.200;2023-11-19T12:35:22;14.50;95.80
20337;DHT22;10326;53.660;10.200;2023-11-19T12:37:51;14.50;95.80
20337;DHT22;10326;53.660;10.200;2023-11-19T12:40:20;14.50;95.90
20337;DHT22;10326;53.660;10.200;2023-11-19T12:42:48;14.60;95.90
20337;DHT22;10326;53.660;10.200;2023-11-19T12:45:20;14.60;95.90
20337;DHT22;10326;53.660;10.200;2023-11-19T12:48:07;14.60;96.00
20337;DHT22;10326;53.660;10.200;2023-11-19T12:50:52;14.60;96.20
20337;DHT22;10326;53.660;10.200;2023-11-19T12:53:21;14.70;96.10
20337;DHT22;10326;53.660;10.200;2023-11-19T12:55:49;14.70;95.90
20337;DHT22;10326;53.660;10.200;2023-11-19T12:58:30;14.80;95.80
20337;DHT22;10326;53.660;10.200;2023-11-19T13:01:03;14.80;95.70
20337;DHT22;10326;53.660;10.200;2023-11-19T13:03:32;14.80;95.60
20337;DHT22;10326;53.660;10.200;2023-11-19T13:06:06;14.80;95.60
20337;DHT22;10326;53.660;10.200;2023-11-19T13:08:41;14.80;95.50
20337;DHT22;10326;53.660;10.200;2023-11-19T13:11:11;14.70;95.40
20337;DHT22;10326;53.660;10.200;2023-11-19T13:13:54;14.70;95.40
20337;DHT22;10326;53.660;10.200;2023-11-19T13:16:22;14.70;95.50
20337;DHT22;10326;53.660;10.200;2023-11-19T13:18:51;14.70;95.40
20337;DHT22;10326;53.660;10.200;2023-11-19T13:21:23;14.70;95.40
20337;DHT22;10326;53.660;10.200;2023-11-19T13:23:51;14.60;95.50
20337;DHT22;10326;53.660;10.200;2023-11-19T13:26:18;14.60;95.40
20337;DHT22;10326;53.660;10.200;2023-11-19T13:28:47;14.60;95.50
20337;DHT22;10326;53.660;10.200;2023-11-19T13:31:14;14.60;95.50
20337;DHT22;10326;53.660;10.200;2023-11-19T13:33:43;14.60;95.40
20337;DHT22;10326;53.660;10.200;2023-11-19T13:36:11;14.60;95.50
20337;DHT22;10326;53.660;10.200;2023-11-19T13:38:39;14.60;95.50
20337;DHT22;10326;53.660;10.200;2023-11-19T13:41:08;14.60;95.50
20337;DHT22;10326;53.660;10.200;2023-11-19T13:43:37;14.60;95.50
20337;DHT22;10326;53.660;10.200;2023-11-19T13:46:05;14.50;95.40
20337;DHT22;10326;53.660;10.200;2023-11-19T13:48:36;14.60;95.40
20337;DHT22;10326;53.660;10.200;2023-11-19T13:51:06;14.50;95.40
20337;DHT22;10326;53.660;10.200;2023-11-19T13:53:35;14.50;95.40
20337;DHT22;10326;53.660;10.200;2023-11-19T13:56:04;14.50;95.40
20337;DHT22;10326;53.660;10.200;2023-11-19T13:58:31;14.60;95.50
20337;DHT22;10326;53.660;10.200;2023-11-19T14:01:01;14.60;95.40
20337;DHT22;10326;53.660;10.200;2023-11-19T14:03:29;14.60;95.40
20337;DHT22;10326;53.660;10.200;2023-11-19T14:05:57;14.60;95.40
20337;DHT22;10326;53.660;10.200;2023-11-19T14:08:27;14.60;95.40
20337;DHT22;10326;53.660;10.200;2023-11-19T14:11:10;14.60;95.30
20337;DHT22;10326;53.660;10.200;2023-11-19T14:13:37;14.60;95.30
20337;DHT22;10326;53.660;10.200;2023-11-19T14:16:06;14.60;95.30
20337;DHT22;10326;53.660;10.200;2023-11-19T14:18:34;14.60;95.30
20337;DHT22;10326;53.660;10.200;2023-11-19T14:21:03;14.60;95.30
20337;DHT22;10326;53.660;10.200;2023-11-19T14:23:32;14.60;95.30
20337;DHT22;10326;53.660;10.200;2023-11-19T14:25:59;14.60;95.20
20337;DHT22;10326;53.660;10.200;2023-11-19T14:28:30;14.60;95.20
20337;DHT22;10326;53.660;10.200;2023-11-19T14:34:41;14.60;95.30
20337;DHT22;10326;53.660;10.200;2023-11-19T14:37:13;14.60;95.20
20337;DHT22;10326;53.660;10.200;2023-11-19T14:39:47;14.50;95.20
20337;DHT22;10326;53.660;10.200;2023-11-19T14:42:20;14.50;95.20
20337;DHT22;10326;53.660;10.200;2023-11-19T14:45:35;14.50;95.20
20337;DHT22;10326;53.660;10.200;2023-11-19T14:49:07;14.40;95.30
20337;DHT22;10326;53.660;10.200;2023-11-19T14:51:37;14.30;95.10
20337;DHT22;10326;53.660;10.200;2023-11-19T14:54:11;14.30;95.20
20337;DHT22;10326;53.660;10.200;2023-11-19T14:56:43;14.30;95.30
20337;DHT22;10326;53.660;10.200;2023-11-19T14:59:12;14.20;95.30
20337;DHT22;10326;53.660;10.200;2023-11-19T15:01:41;14.20;95.30
20337;DHT22;10326;53.660;10.200;2023-11-19T15:04:14;14.20;95.30
20337;DHT22;10326;53.660;10.200;2023-11-19T15:06:42;14.10;95.20
20337;DHT22;10326;53.660;10.200;2023-11-19T15:09:10;14.10;95.20
20337;DHT22;10326;53.660;10.200;2023-11-19T15:11:44;14.00;95.20
20337;DHT22;10326;53.660;10.200;2023-11-19T15:14:11;14.00;95.20
20337;DHT22;10326;53.660;10.200;2023-11-19T15:16:40;14.00;95.10
20337;DHT22;10326;53.660;10.200;2023-11-19T15:19:08;14.00;95.10
20337;DHT22;10326;53.660;10.200;2023-11-19T15:21:35;13.90;95.10
20337;DHT22;10326;53.660;10.200;2023-11-19T15:24:03;13.90;95.00
20337;DHT22;10326;53.660;10.200;2023-11-19T15:26:33;13.90;95.10
20337;DHT22;10326;53.660;10.200;2023-11-19T15:29:02;13.80;95.00
20337;DHT22;10326;53.660;10.200;2023-11-19T15:31:29;13.80;95.00
20337;DHT22;10326;53.660;10.200;2023-11-19T15:33:57;13.70;95.00
20337;DHT22;10326;53.660;10.200;2023-11-19T15:36:24;13.70;95.00
20337;DHT22;10326;53.660;10.200;2023-11-19T15:38:51;13.70;95.00
20337;DHT22;10326;53.660;10.200;2023-11-19T15:41:19;13.60;95.00
20337;DHT22;10326;53.660;10.200;2023-11-19T15:43:46;13.60;95.00
20337;DHT22;10326;53.660;10.200;2023-11-19T15:46:15;13.60;95.00